Time;durP1;ratioP1;P1;durP2;ratioP2;P2;SDS_P1;SDS_P2;PMS_P1;PMS_P2;Temp;Humidity;BMP_temperature;BMP_pressure;BME280_temperature;BME280_humidity;BME280_pressure;Samples;Min_cycle;Max_cycle;Signal;HPM_P1;HPM_P2
2021/05/05 04:53:16;;;;;;;8.07;2.15;;;6.60;99.90;;;;;;4871336;29;20421;-71
2021/05/05 04:55:42;;;;;;;9.43;2.55;;;6.60;99.90;;;;;;4882476;29;20049;-73
2021/05/05 04:58:09;;;;;;;11.55;2.33;;;6.50;99.90;;;;;;4868727;29;20059;-71
2021/05/05 05:00:36;;;;;;;12.73;2.78;;;6.50;99.90;;;;;;4873766;29;20052;-70
2021/05/05 05:03:02;;;;;;;12.48;2.47;;;6.50;99.90;;;;;;4896578;23;20052;-71
2021/05/05 05:05:29;;;;;;;;;;;6.60;99.90;;;;;;4923483;29;20080;-71
2021/05/05 05:07:55;;;;;;;8.50;2.20;;;6.80;99.90;;;;;;4920553;29;20366;-72
2021/05/05 05:10:23;;;;;;;11.40;2.88;;;6.80;99.90;;;;;;4927734;29;20075;-72
2021/05/05 05:12:49;;;;;;;14.75;2.50;;;6.70;99.90;;;;;;4926050;29;20731;-72
2021/05/05 05:15:16;;;;;;;9.00;2.30;;;6.60;99.90;;;;;;4918794;29;20635;-72
2021/05/05 05:17:42;;;;;;;;;;;6.60;99.90;;;;;;4917838;29;20044;-71
2021/05/05 05:20:10;;;;;;;11.90;2.05;;;6.70;99.90;;;;;;4918127;29;20387;-71
2021/05/05 05:22:37;;;;;;;11.82;2.47;;;7.60;99.90;;;;;;4912653;29;20047;-71
2021/05/05 05:25:05;;;;;;;17.17;3.58;;;8.40;99.90;;;;;;4912399;29;20087;-73
2021/05/05 05:27:32;;;;;;;8.63;2.13;;;9.00;99.90;;;;;;4912441;29;20044;-74
2021/05/05 05:30:00;;;;;;;10.45;2.13;;;8.50;99.90;;;;;;4919349;29;20104;-75
2021/05/05 05:32:26;;;;;;;8.57;2.47;;;8.70;99.90;;;;;;4928509;29;20040;-74
2021/05/05 05:34:53;;;;;;;13.23;2.45;;;8.70;99.90;;;;;;4914906;29;20063;-74
2021/05/05 05:37:19;;;;;;;9.85;3.15;;;8.40;99.90;;;;;;4917115;29;20048;-74
2021/05/05 05:39:46;;;;;;;;;;;8.60;99.90;;;;;;4916792;29;20492;-73
2021/05/05 05:42:12;;;;;;;8.50;2.38;;;9.30;99.90;;;;;;4920069;29;20026;-74
2021/05/05 05:44:40;;;;;;;11.35;1.95;;;10.00;99.90;;;;;;4916647;29;20491;-74
2021/05/05 05:47:07;;;;;;;8.30;2.17;;;10.50;99.90;;;;;;4916005;29;20127;-73
2021/05/05 05:49:34;;;;;;;6.65;2.20;;;10.80;99.90;;;;;;4929950;29;20046;-78
2021/05/05 05:52:01;;;;;;;6.90;2.00;;;10.90;99.90;;;;;;4930725;29;20047;-75
2021/05/05 05:54:27;;;;;;;15.27;3.08;;;11.20;99.90;;;;;;4921838;29;20460;-76
2021/05/05 05:56:54;;;;;;;8.40;2.95;;;11.20;99.90;;;;;;4915148;29;20497;-75
2021/05/05 05:59:20;;;;;;;8.75;2.17;;;11.60;99.90;;;;;;4930820;29;20106;-75
2021/05/05 06:01:48;;;;;;;10.93;2.47;;;11.90;99.90;;;;;;4933689;29;20050;-76
2021/05/05 06:04:16;;;;;;;11.10;2.75;;;11.80;99.90;;;;;;4932703;29;20059;-75
2021/05/05 06:06:43;;;;;;;7.40;2.22;;;12.30;99.90;;;;;;4926284;29;20048;-76
2021/05/05 06:09:09;;;;;;;11.10;2.55;;;12.40;99.90;;;;;;4913346;29;20079;-75
2021/05/05 06:11:36;;;;;;;12.20;2.75;;;12.20;99.90;;;;;;4914219;29;20056;-74
2021/05/05 06:14:03;;;;;;;8.50;1.90;;;12.40;99.90;;;;;;4935902;29;20071;-73
2021/05/05 06:16:29;;;;;;;12.68;2.53;;;12.60;99.90;;;;;;4951248;29;20066;-74
2021/05/05 06:18:57;;;;;;;9.88;2.47;;;12.70;99.90;;;;;;4951554;29;20055;-75
2021/05/05 06:21:24;;;;;;;9.25;2.42;;;12.50;99.90;;;;;;4950414;29;20039;-75
2021/05/05 06:23:50;;;;;;;;;;;12.70;99.90;;;;;;4952263;29;20047;-75
2021/05/05 06:26:17;;;;;;;8.77;2.35;;;13.00;99.90;;;;;;4923920;29;19923;-74
2021/05/05 06:28:43;;;;;;;10.02;1.85;;;13.30;99.90;;;;;;4932758;29;20499;-75
2021/05/05 06:31:10;;;;;;;6.82;2.40;;;13.30;99.90;;;;;;4932006;29;20044;-74
2021/05/05 06:33:37;;;;;;;7.65;2.05;;;13.40;99.90;;;;;;4923085;29;20096;-75
2021/05/05 06:36:06;;;;;;;10.10;2.53;;;12.90;99.90;;;;;;4915392;29;20075;-73
2021/05/05 06:38:33;;;;;;;10.65;2.50;;;12.80;99.90;;;;;;4920769;29;20546;-75
2021/05/05 06:41:08;;;;;;;8.35;2.13;;;13.30;99.90;;;;;;4925283;29;20166;-76
2021/05/05 06:43:36;;;;;;;11.82;2.50;;;13.60;99.90;;;;;;4918063;29;20044;-75
2021/05/05 06:46:03;;;;;;;7.28;2.35;;;13.40;99.90;;;;;;4930254;29;20395;-77
2021/05/05 06:48:31;;;;;;;9.25;2.72;;;14.10;99.90;;;;;;4932894;29;20052;-76
2021/05/05 06:50:57;;;;;;;11.25;2.60;;;13.80;99.90;;;;;;4919416;29;20043;-76
2021/05/05 06:53:25;;;;;;;;;;;13.50;99.90;;;;;;4920459;29;20127;-72
2021/05/05 06:55:51;;;;;;;6.10;2.47;;;13.40;99.90;;;;;;4921948;29;20371;-74
2021/05/05 06:58:19;;;;;;;8.07;2.47;;;14.20;99.00;;;;;;4916222;29;20416;-74
2021/05/05 07:00:46;;;;;;;10.95;2.65;;;13.30;99.20;;;;;;4915790;29;20533;-74
2021/05/05 07:03:13;;;;;;;8.02;2.85;;;13.20;99.90;;;;;;4916082;29;20044;-73
2021/05/05 07:05:39;;;;;;;11.85;3.58;;;13.60;99.90;;;;;;4916167;29;20044;-73
2021/05/05 07:08:06;;;;;;;12.27;2.53;;;13.30;99.90;;;;;;4915858;29;20147;-75
2021/05/05 07:10:34;;;;;;;8.10;2.42;;;13.40;99.80;;;;;;4914118;29;20047;-75
2021/05/05 07:13:03;;;;;;;6.35;2.45;;;13.70;98.80;;;;;;4916314;29;20516;-75
2021/05/05 07:15:31;;;;;;;7.30;2.50;;;13.80;98.90;;;;;;4914558;29;20170;-74
2021/05/05 07:17:58;;;;;;;8.77;2.30;;;14.00;98.20;;;;;;4916110;29;20072;-75
2021/05/05 07:20:25;;;;;;;8.00;2.03;;;14.10;98.00;;;;;;4932126;29;20071;-73
2021/05/05 07:22:51;;;;;;;6.72;2.50;;;13.80;98.70;;;;;;4920509;29;20115;-75
2021/05/05 07:25:18;;;;;;;4.40;1.98;;;13.90;98.90;;;;;;4920715;29;20040;-75
2021/05/05 07:27:46;;;;;;;8.90;2.75;;;13.70;98.50;;;;;;4925405;29;20044;-75
2021/05/05 07:30:14;;;;;;;9.40;2.67;;;14.00;98.20;;;;;;4934582;29;20044;-75
2021/05/05 07:32:41;;;;;;;6.93;2.85;;;13.40;98.40;;;;;;4918285;29;20055;-74
2021/05/05 07:35:10;;;;;;;4.60;2.22;;;11.60;99.90;;;;;;4915144;29;20539;-74
2021/05/05 07:46:17;;;;;;;7.53;2.90;;;7.90;99.90;;;;;;4917579;29;20052;-72
2021/05/05 07:48:49;;;;;;;3.03;1.42;;;9.20;99.90;;;;;;4920657;29;20040;-73
2021/05/05 07:51:16;;;;;;;4.82;1.92;;;10.40;99.90;;;;;;4918799;29;20048;-72
2021/05/05 07:53:42;;;;;;;;;;;11.60;99.90;;;;;;4924949;29;20036;-72
2021/05/05 07:56:09;;;;;;;3.80;1.63;;;12.30;99.90;;;;;;4922150;29;19923;-73
2021/05/05 07:58:36;;;;;;;3.63;1.70;;;13.50;99.90;;;;;;4915607;29;20040;-72
2021/05/05 08:01:03;;;;;;;12.55;2.00;;;13.80;99.90;;;;;;4928924;29;20417;-73
2021/05/05 08:03:30;;;;;;;8.18;2.08;;;14.10;99.90;;;;;;4927256;29;20061;-73
2021/05/05 08:05:58;;;;;;;8.43;2.90;;;14.60;99.90;;;;;;4920519;29;20043;-73
2021/05/05 08:08:25;;;;;;;8.05;2.50;;;14.30;99.90;;;;;;4912223;29;20154;-71
2021/05/05 08:10:56;;;;;;;;;;;14.80;99.90;;;;;;4922122;29;20048;-73
2021/05/05 08:13:23;;;;;;;6.40;2.00;;;14.00;99.90;;;;;;4934947;29;19934;-73
2021/05/05 08:15:50;;;;;;;8.15;2.40;;;13.90;99.90;;;;;;4932998;29;20448;-73
2021/05/05 08:18:16;;;;;;;7.85;2.22;;;13.70;99.90;;;;;;4957767;29;20056;-73
2021/05/05 08:20:43;;;;;;;5.95;2.65;;;14.40;99.90;;;;;;4936407;29;20054;-72
2021/05/05 08:23:11;;;;;;;7.32;2.97;;;13.80;99.90;;;;;;4942219;29;20103;-73
2021/05/05 08:25:38;;;;;;;7.20;2.47;;;14.00;99.60;;;;;;4942946;29;20044;-73
2021/05/05 08:28:05;;;;;;;6.35;2.42;;;14.50;99.90;;;;;;4933102;29;20052;-73
2021/05/05 08:30:33;;;;;;;8.00;2.40;;;14.60;99.60;;;;;;4935720;29;20052;-73
2021/05/05 08:33:02;;;;;;;6.22;1.70;;;14.70;98.60;;;;;;4924115;29;20040;-73
2021/05/05 08:35:32;;;;;;;6.40;2.17;;;15.20;98.10;;;;;;4923421;29;20050;-72
2021/05/05 08:37:58;;;;;;;5.28;1.90;;;14.00;97.60;;;;;;4930327;29;20103;-74
2021/05/05 08:40:25;;;;;;;6.00;2.08;;;14.50;97.60;;;;;;4945141;29;20067;-73
2021/05/05 08:42:52;;;;;;;7.65;1.77;;;15.20;96.90;;;;;;4930600;29;20040;-72
2021/05/05 08:45:20;;;;;;;5.13;1.50;;;15.60;94.70;;;;;;4926220;29;20121;-72
2021/05/05 08:47:48;;;;;;;3.65;1.50;;;15.20;92.00;;;;;;4925901;29;20081;-72
2021/05/05 08:50:19;;;;;;;6.20;1.90;;;15.20;92.10;;;;;;4929394;29;20054;-73
2021/05/05 08:52:45;;;;;;;6.07;1.83;;;14.80;91.70;;;;;;4925104;29;20442;-73
2021/05/05 08:55:15;;;;;;;16.08;2.85;;;14.40;93.10;;;;;;4914966;29;20330;-73
2021/05/05 08:57:41;;;;;;;4.05;1.60;;;15.30;91.40;;;;;;4916135;29;20054;-73
2021/05/05 09:00:11;;;;;;;5.55;1.73;;;15.50;91.30;;;;;;4916802;29;20434;-73
2021/05/05 09:02:41;;;;;;;5.35;2.03;;;15.10;91.70;;;;;;4920131;29;20130;-74
2021/05/05 09:05:11;;;;;;;7.95;1.60;;;14.30;91.50;;;;;;4922044;29;20468;-74
2021/05/05 09:07:40;;;;;;;5.28;1.42;;;13.70;92.20;;;;;;4925199;29;20407;-73
2021/05/05 09:10:09;;;;;;;5.80;1.88;;;12.70;93.00;;;;;;4924701;29;20039;-73
2021/05/05 09:12:38;;;;;;;4.70;1.75;;;12.90;92.90;;;;;;4927500;29;20448;-74
2021/05/05 09:15:07;;;;;;;5.95;1.70;;;13.90;92.50;;;;;;4919505;29;20051;-74
2021/05/05 09:17:35;;;;;;;3.95;1.63;;;13.90;91.70;;;;;;4928612;29;20070;-73
2021/05/05 09:20:20;;;;;;;4.88;1.70;;;13.10;92.90;;;;;;4931501;29;20044;-73
2021/05/05 09:22:50;;;;;;;7.07;2.15;;;13.00;93.30;;;;;;4919484;29;20040;-74
2021/05/05 09:25:20;;;;;;;3.10;1.23;;;12.90;94.30;;;;;;4915364;29;20044;-72
2021/05/05 09:28:07;;;;;;;1.23;0.80;;;10.80;99.90;;;;;;4924626;29;20143;-72
2021/05/05 09:30:35;;;;;;;1.98;0.80;;;9.70;99.90;;;;;;4927729;29;20047;-72
2021/05/05 09:33:01;;;;;;;1.98;0.95;;;9.20;99.90;;;;;;4913548;29;20123;-72
2021/05/05 09:35:33;;;;;;;2.10;1.00;;;9.30;99.90;;;;;;4913430;29;20052;-72
2021/05/05 09:38:02;;;;;;;2.15;1.15;;;10.10;99.90;;;;;;4913694;29;20051;-71
2021/05/05 09:40:29;;;;;;;1.10;1.00;;;10.20;99.90;;;;;;4912100;29;20090;-72
2021/05/05 09:42:55;;;;;;;2.70;1.50;;;10.00;99.90;;;;;;4914303;29;20507;-71
2021/05/05 09:45:31;;;;;;;3.28;0.90;;;10.20;99.90;;;;;;4923222;29;20400;-71
2021/05/05 09:47:59;;;;;;;0.70;0.63;;;10.00;99.90;;;;;;4931875;29;20488;-72
2021/05/05 09:50:37;;;;;;;1.83;0.80;;;10.00;99.90;;;;;;4932821;29;20492;-71
2021/05/05 09:53:27;;;;;;;1.27;0.85;;;10.90;99.90;;;;;;4933045;29;20493;-71
2021/05/05 09:56:11;;;;;;;2.00;0.57;;;11.50;99.90;;;;;;4926246;29;20305;-72
2021/05/05 09:58:39;;;;;;;1.00;0.60;;;11.80;99.90;;;;;;4931457;29;20051;-72
2021/05/05 10:01:20;;;;;;;1.35;0.52;;;12.30;99.90;;;;;;4932908;29;20060;-73
2021/05/05 10:03:49;;;;;;;0.55;0.40;;;12.80;99.90;;;;;;4936030;29;20040;-73
2021/05/05 10:06:18;;;;;;;2.92;0.90;;;13.10;99.90;;;;;;4936203;29;20078;-72
2021/05/05 10:08:50;;;;;;;2.40;0.93;;;12.90;99.90;;;;;;4937066;29;20043;-72
2021/05/05 10:11:20;;;;;;;2.47;1.20;;;12.90;99.90;;;;;;4936321;29;20060;-73
2021/05/05 10:13:49;;;;;;;2.13;0.77;;;13.40;99.90;;;;;;4934940;29;20051;-73
2021/05/05 10:16:17;;;;;;;2.58;0.73;;;13.80;99.90;;;;;;4936643;29;20047;-73
2021/05/05 10:18:45;;;;;;;5.47;1.08;;;13.70;99.90;;;;;;4935494;29;20134;-73
2021/05/05 10:21:14;;;;;;;7.13;1.63;;;14.20;99.90;;;;;;4936007;29;20055;-72
2021/05/05 10:23:42;;;;;;;1.80;0.95;;;13.30;99.90;;;;;;4936216;29;20119;-71
2021/05/05 10:26:11;;;;;;;1.77;0.90;;;11.20;99.90;;;;;;4936187;29;20278;-73
2021/05/05 10:28:39;;;;;;;4.55;1.20;;;10.00;99.90;;;;;;4935187;29;20171;-75
2021/05/05 10:31:15;;;;;;;3.05;1.10;;;9.20;99.90;;;;;;4936205;29;20499;-74
2021/05/05 10:33:44;;;;;;;4.25;1.27;;;8.10;99.90;;;;;;4934916;29;20059;-72
2021/05/05 10:36:29;;;;;;;3.10;1.17;;;7.50;99.90;;;;;;4934430;29;20048;-73
2021/05/05 10:38:57;;;;;;;2.85;1.08;;;7.30;99.90;;;;;;4935545;29;20090;-72
2021/05/05 10:41:24;;;;;;;4.30;1.98;;;7.10;99.90;;;;;;4935590;29;20139;-72
2021/05/05 10:43:54;;;;;;;5.03;1.80;;;7.00;99.90;;;;;;4935673;29;20079;-72
2021/05/05 10:46:25;;;;;;;2.25;1.70;;;7.10;99.90;;;;;;4917424;29;20062;-73
2021/05/05 10:49:12;;;;;;;2.05;1.25;;;7.30;99.90;;;;;;4916417;29;20047;-73
2021/05/05 10:51:59;;;;;;;4.50;1.40;;;7.50;99.90;;;;;;4915203;29;20051;-73
2021/05/05 10:54:53;;;;;;;2.83;1.20;;;7.90;99.90;;;;;;4915208;29;20048;-72
2021/05/05 10:57:22;;;;;;;1.90;0.75;;;8.20;99.90;;;;;;4921635;29;20051;-72
2021/05/05 11:00:11;;;;;;;2.72;1.00;;;8.80;99.90;;;;;;4924123;29;20587;-73
2021/05/05 11:03:03;;;;;;;1.73;1.17;;;9.00;99.90;;;;;;4934377;29;20044;-72
2021/05/05 11:05:35;;;;;;;3.67;1.25;;;9.80;99.90;;;;;;4912806;29;20139;-72
2021/05/05 11:08:05;;;;;;;3.30;1.10;;;10.70;99.90;;;;;;4916859;29;20048;-73
2021/05/05 11:10:58;;;;;;;2.20;1.10;;;11.30;99.90;;;;;;4916328;29;20060;-73
2021/05/05 11:13:44;;;;;;;2.22;1.40;;;11.60;99.90;;;;;;4915595;29;20050;-72
2021/05/05 11:16:11;;;;;;;4.43;1.58;;;12.50;99.90;;;;;;4914837;29;20136;-72
2021/05/05 11:18:48;;;;;;;3.05;1.85;;;12.70;99.90;;;;;;4917629;29;20044;-72
2021/05/05 11:21:42;;;;;;;2.35;1.50;;;12.40;99.90;;;;;;4935417;29;20093;-72
2021/05/05 11:24:39;;;;;;;4.68;1.70;;;12.50;99.90;;;;;;4933385;29;20427;-72
2021/05/05 11:27:08;;;;;;;2.33;1.48;;;12.30;99.90;;;;;;4875057;29;20091;-78
2021/05/05 11:29:40;;;;;;;1.58;1.30;;;11.70;99.90;;;;;;4918210;29;20103;-72
2021/05/05 11:32:09;;;;;;;4.28;1.60;;;10.90;99.90;;;;;;4924912;29;20115;-73
2021/05/05 11:34:37;;;;;;;3.63;1.58;;;10.40;99.90;;;;;;4934803;29;20055;-72
2021/05/05 11:37:09;;;;;;;3.95;1.40;;;9.90;99.90;;;;;;4916773;29;20075;-72
2021/05/05 11:39:38;;;;;;;4.60;1.52;;;9.90;99.90;;;;;;4925403;29;20130;-72
2021/05/05 11:42:09;;;;;;;2.67;1.25;;;10.50;99.90;;;;;;4921265;29;20091;-72
2021/05/05 11:44:39;;;;;;;4.93;1.60;;;11.30;99.90;;;;;;4916796;29;20587;-72
2021/05/05 11:47:08;;;;;;;1.50;1.15;;;11.60;99.90;;;;;;4927078;29;20063;-72
2021/05/05 11:49:37;;;;;;;2.25;1.20;;;11.90;99.90;;;;;;4919763;29;20099;-72
2021/05/05 11:52:20;;;;;;;4.63;1.88;;;11.10;99.90;;;;;;4934108;29;20044;-72
2021/05/05 11:54:48;;;;;;;1.75;1.05;;;9.90;99.90;;;;;;4928278;29;20068;-71
2021/05/05 11:57:15;;;;;;;4.20;0.95;;;9.00;99.90;;;;;;4929457;29;20057;-72
2021/05/05 11:59:43;;;;;;;2.55;1.30;;;8.40;99.90;;;;;;4931629;29;20054;-71
2021/05/05 12:02:10;;;;;;;1.55;1.25;;;8.10;99.90;;;;;;4953420;29;20059;-72
2021/05/05 12:04:37;;;;;;;;;;;7.90;99.90;;;;;;4953040;29;20098;-72
2021/05/05 12:07:06;;;;;;;2.05;1.40;;;7.80;99.90;;;;;;4941641;28;19923;-72
2021/05/05 12:09:35;;;;;;;2.97;2.10;;;7.60;99.90;;;;;;4933823;29;20079;-72
2021/05/05 12:12:26;;;;;;;7.85;2.40;;;7.40;99.90;;;;;;4928397;29;20047;-72
2021/05/05 12:14:55;;;;;;;2.10;1.75;;;7.40;99.90;;;;;;4933647;29;20043;-72
2021/05/05 12:17:27;;;;;;;1.83;1.73;;;7.20;99.90;;;;;;4933510;29;20043;-72
2021/05/05 12:19:59;;;;;;;2.17;1.90;;;7.30;99.90;;;;;;4933291;29;20055;-72
2021/05/05 12:22:27;;;;;;;2.35;1.30;;;7.30;99.90;;;;;;4923916;29;20395;-72
2021/05/05 12:25:15;;;;;;;1.85;1.20;;;7.30;99.90;;;;;;4932330;29;20040;-73
2021/05/05 12:27:59;;;;;;;1.58;1.33;;;7.40;99.90;;;;;;4933061;29;20119;-76
2021/05/05 12:30:36;;;;;;;2.85;1.70;;;7.50;99.90;;;;;;4934074;29;20508;-74
2021/05/05 12:33:03;;;;;;;1.40;1.23;;;7.60;99.90;;;;;;4916015;29;20040;-72
2021/05/05 12:35:30;;;;;;;2.80;1.20;;;7.70;99.90;;;;;;4920656;29;20071;-73
2021/05/05 12:37:57;;;;;;;1.52;1.40;;;8.10;99.90;;;;;;4930214;29;20056;-71
2021/05/05 12:40:25;;;;;;;1.45;1.20;;;8.50;99.90;;;;;;4926330;29;20068;-72
2021/05/05 12:42:52;;;;;;;2.05;1.08;;;9.00;99.90;;;;;;4915864;29;20457;-70
2021/05/05 12:45:21;;;;;;;1.90;1.10;;;9.60;99.90;;;;;;4920547;29;20047;-70
2021/05/05 12:47:49;;;;;;;1.52;1.38;;;10.20;99.90;;;;;;4930476;29;20407;-72
2021/05/05 12:50:17;;;;;;;1.20;1.10;;;11.10;99.90;;;;;;4923063;29;20047;-70
2021/05/05 12:52:43;;;;;;;1.00;1.00;;;11.80;99.90;;;;;;4914227;29;20119;-71
2021/05/05 12:55:23;;;;;;;;;;;12.10;99.90;;;;;;4915160;29;20221;-72
2021/05/05 12:57:59;;;;;;;2.10;1.30;;;12.90;99.90;;;;;;4914671;29;19978;-71
2021/05/05 13:00:25;;;;;;;2.80;0.90;;;12.70;99.90;;;;;;4922268;29;20457;-74
2021/05/05 13:03:10;;;;;;;1.30;0.90;;;12.20;99.90;;;;;;4940927;29;20139;-75
2021/05/05 13:05:56;;;;;;;1.83;0.93;;;13.00;99.90;;;;;;4937823;29;20051;-75
2021/05/05 13:08:33;;;;;;;1.85;1.40;;;12.90;99.90;;;;;;4939848;29;20075;-75
2021/05/05 13:11:02;;;;;;;;;;;12.50;99.90;;;;;;4931671;29;20185;-75
2021/05/05 13:13:47;;;;;;;2.40;1.27;;;13.00;99.90;;;;;;4915021;29;19930;-75
2021/05/05 13:30:27;;;;;;;1.25;0.90;;;12.60;99.90;;;;;;4913897;29;20040;-77
2021/05/05 13:32:57;;;;;;;3.63;1.20;;;12.60;99.90;;;;;;4912706;29;20556;-76
2021/05/05 13:35:34;;;;;;;9.18;1.33;;;12.50;99.90;;;;;;4920169;29;20067;-77
2021/05/05 13:38:13;;;;;;;3.00;1.10;;;12.70;99.90;;;;;;4930887;29;20044;-77
2021/05/05 13:40:43;;;;;;;1.38;0.80;;;12.40;99.90;;;;;;4919277;29;20056;-73
2021/05/05 13:43:23;;;;;;;2.70;0.90;;;11.90;99.90;;;;;;4920102;29;20055;-72
2021/05/05 13:45:58;;;;;;;1.90;1.10;;;11.60;99.90;;;;;;4920264;29;20040;-72
2021/05/05 13:51:14;;;;;;;3.15;0.93;;;11.50;99.90;;;;;;4913652;29;20235;-72
2021/05/05 13:53:45;;;;;;;1.77;0.95;;;11.80;99.90;;;;;;4929708;29;20044;-72
2021/05/05 13:56:13;;;;;;;4.07;1.13;;;11.70;99.90;;;;;;4927846;29;20446;-72
2021/05/05 13:58:40;;;;;;;3.85;1.10;;;11.60;99.90;;;;;;4917453;29;20048;-71
2021/05/05 14:01:06;;;;;;;4.40;1.33;;;11.50;99.90;;;;;;4915951;29;20111;-72
2021/05/05 14:03:33;;;;;;;2.58;1.30;;;11.70;99.90;;;;;;4916834;29;20043;-72
2021/05/05 14:06:00;;;;;;;2.38;1.67;;;11.70;99.90;;;;;;4915611;29;20079;-71
2021/05/05 14:08:28;;;;;;;;;;;11.60;99.90;;;;;;4922147;29;20101;-70
2021/05/05 14:10:56;;;;;;;6.22;1.50;;;11.30;99.90;;;;;;4916864;29;19939;-72
2021/05/05 14:13:23;;;;;;;2.75;1.35;;;11.50;99.90;;;;;;4917072;29;20040;-73
2021/05/05 14:15:52;;;;;;;2.25;1.27;;;11.50;99.90;;;;;;4924876;29;20051;-72
2021/05/05 14:18:19;;;;;;;3.55;1.58;;;12.10;99.90;;;;;;4935682;29;20095;-72
2021/05/05 14:20:46;;;;;;;10.60;1.70;;;12.20;99.90;;;;;;4922507;29;20127;-71
2021/05/05 14:23:13;;;;;;;3.70;1.83;;;11.90;99.30;;;;;;4935818;29;20488;-71
2021/05/05 14:25:40;;;;;;;3.70;1.73;;;11.90;99.90;;;;;;4929343;29;20084;-71
2021/05/05 14:28:07;;;;;;;3.08;1.50;;;11.70;99.90;;;;;;4917765;29;20051;-71
2021/05/05 14:30:35;;;;;;;5.50;1.52;;;11.80;99.90;;;;;;4916578;29;20449;-72
2021/05/05 14:33:03;;;;;;;4.85;1.92;;;11.70;99.90;;;;;;4915029;29;20119;-75
2021/05/05 14:35:33;;;;;;;6.53;2.00;;;11.60;99.90;;;;;;4917495;29;20048;-77
2021/05/05 14:38:03;;;;;;;4.72;1.48;;;11.70;99.90;;;;;;4916381;29;20035;-75
2021/05/05 14:40:31;;;;;;;4.28;1.73;;;11.70;99.70;;;;;;4920619;29;20052;-74
2021/05/05 14:43:02;;;;;;;2.72;1.40;;;11.70;99.90;;;;;;4927904;29;20055;-73
2021/05/05 14:45:54;;;;;;;3.75;1.95;;;11.70;99.90;;;;;;4920913;29;20427;-73
2021/05/05 14:48:24;;;;;;;4.93;1.70;;;11.60;99.90;;;;;;4917964;29;20091;-73
2021/05/05 14:50:51;;;;;;;3.63;2.00;;;12.30;99.90;;;;;;4928742;29;20468;-73
2021/05/05 14:53:19;;;;;;;3.80;1.52;;;12.60;99.90;;;;;;4917871;29;20142;-74
2021/05/05 14:55:47;;;;;;;2.83;1.30;;;13.10;98.50;;;;;;4934315;29;20047;-76
2021/05/05 14:58:16;;;;;;;2.92;1.38;;;13.50;97.20;;;;;;4934428;29;20547;-75
2021/05/05 15:00:43;;;;;;;5.13;1.50;;;13.30;95.90;;;;;;4925625;29;20591;-75
2021/05/05 15:03:11;;;;;;;2.28;1.05;;;13.20;93.60;;;;;;4916232;29;20282;-75
2021/05/05 15:05:38;;;;;;;6.75;1.58;;;12.90;94.00;;;;;;4919035;29;20062;-75
2021/05/05 15:08:08;;;;;;;3.25;1.42;;;13.40;93.40;;;;;;4926713;29;20127;-74
2021/05/05 15:11:00;;;;;;;5.47;2.00;;;12.90;92.90;;;;;;4929734;29;20104;-75
2021/05/05 15:13:31;;;;;;;4.30;1.30;;;12.90;93.10;;;;;;4929995;29;20521;-77
2021/05/05 15:29:52;;;;;;;6.13;1.90;;;11.80;96.20;;;;;;4915506;29;20171;-74
2021/05/05 15:37:54;;;;;;;8.10;2.40;;;11.80;96.50;;;;;;4927367;29;20186;-73
2021/05/05 15:40:31;;;;;;;5.75;2.13;;;11.90;97.60;;;;;;4922434;29;20062;-74
2021/05/05 15:43:02;;;;;;;3.27;1.57;;;11.90;96.90;;;;;;4921261;29;20548;-74
2021/05/05 15:45:31;;;;;;;5.70;2.33;;;11.70;97.10;;;;;;4928822;29;20295;-74
2021/05/05 15:47:58;;;;;;;5.03;1.95;;;11.70;97.30;;;;;;4952198;29;20105;-74
2021/05/05 15:50:27;;;;;;;5.63;1.98;;;11.90;97.70;;;;;;4938058;29;20055;-75
2021/05/05 15:53:01;;;;;;;4.00;2.00;;;12.00;98.00;;;;;;4915930;29;20085;-73
2021/05/05 15:55:29;;;;;;;5.32;2.17;;;11.70;97.70;;;;;;4919417;29;20060;-73
2021/05/05 15:58:00;;;;;;;5.90;2.00;;;11.70;98.40;;;;;;4920511;29;20135;-74
2021/05/05 16:00:31;;;;;;;4.32;2.28;;;11.80;99.00;;;;;;4915959;29;20192;-73
2021/05/05 16:11:43;;;;;;;7.35;2.38;;;11.90;98.90;;;;;;4920093;29;20052;-73
2021/05/05 16:14:24;;;;;;;3.65;1.77;;;12.00;99.10;;;;;;4925154;29;20095;-73
2021/05/05 16:16:51;;;;;;;5.90;2.28;;;12.00;99.20;;;;;;4914019;29;20072;-73
2021/05/05 16:19:22;;;;;;;5.32;2.10;;;12.00;99.70;;;;;;4920032;29;20169;-73
2021/05/05 16:21:52;;;;;;;6.05;2.13;;;11.90;99.90;;;;;;4928284;29;20663;-74
2021/05/05 16:27:16;;;;;;;9.25;2.75;;;11.90;99.90;;;;;;4913774;29;20056;-74
2021/05/05 16:29:53;;;;;;;5.40;2.13;;;12.00;99.90;;;;;;4913254;29;20048;-75
2021/05/05 16:43:51;;;;;;;2.92;1.33;;;12.20;99.80;;;;;;4930028;29;20043;-74
2021/05/05 16:49:08;;;;;;;4.93;2.17;;;11.90;96.30;;;;;;4929701;29;20062;-73
2021/05/05 16:51:50;;;;;;;5.93;1.80;;;12.00;97.20;;;;;;4914815;29;20054;-74
2021/05/05 16:54:23;;;;;;;3.78;1.80;;;11.90;98.20;;;;;;4935607;29;20062;-73
2021/05/05 16:56:55;;;;;;;5.40;2.97;;;11.80;98.30;;;;;;4938284;29;20135;-73
2021/05/05 17:07:57;;;;;;;3.22;1.67;;;11.30;98.10;;;;;;4935010;29;20249;-74
2021/05/05 17:10:27;;;;;;;3.63;1.80;;;11.30;97.00;;;;;;4927348;29;20059;-74
2021/05/05 17:12:54;;;;;;;3.20;1.75;;;11.40;98.80;;;;;;4927499;29;20126;-73
2021/05/05 17:15:24;;;;;;;2.30;1.50;;;11.40;99.90;;;;;;4922179;29;20490;-74
2021/05/05 17:17:59;;;;;;;3.08;1.90;;;11.30;99.90;;;;;;4924864;29;20051;-73
2021/05/05 17:20:35;;;;;;;2.85;1.70;;;11.30;99.90;;;;;;4935139;29;20047;-73
2021/05/05 17:23:06;;;;;;;3.10;1.35;;;11.10;99.90;;;;;;4924426;29;20127;-73
2021/05/05 17:25:38;;;;;;;3.45;2.30;;;10.90;99.90;;;;;;4919885;29;20052;-73
2021/05/05 17:28:13;;;;;;;7.75;2.75;;;10.90;99.90;;;;;;4922106;29;20047;-73
2021/05/05 17:35:23;;;;;;;5.18;3.00;;;10.90;99.90;;;;;;4911971;29;20517;-74
2021/05/05 17:45:12;;;;;;;6.00;2.40;;;10.10;99.90;;;;;;4916283;29;20052;-75
2021/05/05 18:10:04;;;;;;;5.68;2.17;;;9.60;99.90;;;;;;4912875;29;20119;-75
2021/05/05 18:15:23;;;;;;;9.25;2.70;;;9.60;99.90;;;;;;4913400;29;20044;-76
2021/05/05 18:17:55;;;;;;;10.48;2.85;;;9.70;99.90;;;;;;4912134;29;20047;-76
2021/05/05 18:20:24;;;;;;;5.03;2.90;;;9.50;99.90;;;;;;4917821;29;20096;-75
2021/05/05 18:22:55;;;;;;;6.85;3.08;;;9.40;99.90;;;;;;4913915;29;20040;-75
2021/05/05 18:25:38;;;;;;;6.40;2.63;;;9.40;99.90;;;;;;4918067;29;20048;-75
2021/05/05 18:28:23;;;;;;;4.60;3.08;;;9.40;99.90;;;;;;4927734;29;20127;-76
2021/05/05 18:30:54;;;;;;;10.45;3.40;;;9.30;99.90;;;;;;4914697;29;20044;-74
2021/05/05 18:33:21;;;;;;;6.95;2.75;;;9.10;99.90;;;;;;4918028;29;20501;-74
2021/05/05 18:35:48;;;;;;;;;;;8.90;99.90;;;;;;4914062;29;20532;-74
2021/05/05 18:38:15;;;;;;;5.38;3.10;;;8.70;99.90;;;;;;4919241;29;19930;-74
2021/05/05 18:40:56;;;;;;;9.60;2.90;;;8.80;99.90;;;;;;4927022;29;20146;-74
2021/05/05 18:43:33;;;;;;;8.13;2.85;;;8.80;99.90;;;;;;4930904;29;20230;-71
2021/05/05 19:08:48;;;;;;;6.28;4.15;;;8.20;99.90;;;;;;4919861;29;20095;-73
2021/05/05 19:11:56;;;;;;;8.18;3.50;;;8.20;99.90;;;;;;4916016;29;20051;-73
2021/05/05 19:14:39;;;;;;;10.70;4.20;;;8.20;99.90;;;;;;4917850;29;20134;-73
2021/05/05 19:17:23;;;;;;;10.73;3.60;;;8.00;99.90;;;;;;4914614;29;20036;-73
2021/05/05 20:21:19;;;;;;;4.05;2.90;;;7.60;99.90;;;;;;4921221;29;20051;-73
2021/05/05 20:24:05;;;;;;;4.50;3.08;;;7.50;99.90;;;;;;4921613;29;20413;-73
2021/05/05 21:06:22;;;;;;;6.80;3.60;;;6.40;99.90;;;;;;4932943;29;20114;-72
2021/05/05 21:08:58;;;;;;;6.00;3.28;;;6.50;99.90;;;;;;4913662;29;20075;-73
2021/05/05 21:11:43;;;;;;;4.05;2.92;;;6.40;99.90;;;;;;4916832;29;20103;-73
